Latest Weather Observations for Gympie

IDQ60901

Issued at 9:01 pm EST Friday 6 March 2015 (issued every 10 minutes, with the page automatically refreshed every 10 minutes)

About weather observations | Map of Brisbane area stations | Latest observations for Brisbane area | Other Formats
Station Details ID: 040093 Name: GYMPIE Lat: -26.18 Lon: 152.64 Height: 64.5 m
Data from the previous 72 hours. | See also: Recent months at Gympie
Date/Time
EST
Tmp

°C
App
Tmp
°C
Dew
Point
°C
Rel
Hum
%
Delta-T

°C
Wind Press
QNH
hPa
Press
MSL
hPa
Rain
since
9 am
mm
Dir
 
Spd
km/h
Gust
km/h
Spd
kts
Gust
kts
06/09:00pm 22.2 26.0 20.1 88 1.4 CALM 0 0 0 0 1008.6 1008.2 0.0
06/08:30pm 22.4 26.1 19.9 86 1.6 CALM 0 0 0 0 1008.3 1007.9 0.0
06/08:00pm 22.8 25.8 20.1 85 1.7 SE 4 6 2 3 1007.8 1007.4 0.0
06/07:30pm 23.3 26.7 20.2 83 2.0 ESE 2 4 1 2 1007.4 1007.0 0.0
06/07:00pm 24.2 26.5 19.9 77 2.8 E 7 11 4 6 1007.1 1006.7 0.0
06/06:30pm 24.8 27.4 20.1 75 3.1 E 6 11 3 6 1006.5 1006.2 0.0
06/06:00pm 25.6 27.9 19.9 70 3.7 E 7 13 4 7 1006.3 1006.0 0.0
06/05:30pm 26.4 28.2 20.3 69 4.0 ESE 11 19 6 10 1006.0 1005.7 0.0
06/05:00pm 27.2 29.4 20.5 67 4.4 E 9 20 5 11 1005.7 1005.4 0.0
06/04:30pm 27.2 29.1 20.5 67 4.4 E 11 17 6 9 1005.8 1005.5 0.0
06/04:00pm 27.9 29.2 20.2 63 5.1 ESE 13 20 7 11 1005.6 1005.3 0.0
06/03:30pm 28.7 30.8 20.2 60 5.6 E 9 13 5 7 1005.9 1005.6 0.0
06/03:00pm 29.3 31.5 20.5 59 5.8 ESE 9 13 5 7 1006.0 1005.7 0.0
06/02:30pm 28.5 30.7 20.5 62 5.3 SSE 9 22 5 12 1006.3 1006.0 0.0
06/02:00pm 29.3 31.4 21.0 61 5.5 SE 11 20 6 11 1006.6 1006.3 0.0
06/01:30pm 28.9 31.6 20.6 61 5.5 SSE 7 11 4 6 1007.3 1006.9 0.0
06/01:00pm 28.6 31.5 21.1 64 5.0 SSE 7 13 4 7 1007.7 1007.3 0.0
06/12:30pm 28.6 30.9 20.6 62 5.3 SSE 9 15 5 8 1008.0 1007.6 0.0
06/12:00pm 27.9 30.6 21.4 67 4.3 SSE 9 15 5 8 1008.6 1008.2 0.0
06/11:30am 27.5 30.2 20.6 66 4.6 SSE 7 13 4 7 1009.0 1008.6 0.0
06/11:00am 27.2 29.1 20.5 67 4.4 SE 11 20 6 11 1009.4 1009.1 0.0
06/10:30am 25.9 27.1 19.8 69 4.0 SE 13 20 7 11 1009.6 1009.3 0.0
06/10:00am 25.8 26.9 19.7 69 4.0 SE 13 22 7 12 1009.7 1009.4 0.0
06/09:30am 26.4 27.9 19.8 67 4.3 SE 11 19 6 10 1009.8 1009.5 0.0
06/09:00am 25.6 26.9 19.3 68 4.1 SE 11 22 6 12 1009.6 1009.3 0.0
06/08:30am 26.3 28.5 20.4 70 3.9 SSE 9 13 5 7 1009.3 1008.9 0.0
06/08:00am 25.0 27.1 19.4 71 3.6 S 7 15 4 8 1009.2 1008.8 0.0
06/07:30am 24.3 26.7 19.6 75 3.0 SSE 6 7 3 4 1009.1 1008.7 0.0
06/07:00am 23.7 26.4 19.4 77 2.8 SSE 4 6 2 3 1008.8 1008.4 0.0
06/06:30am 22.9 25.4 19.1 79 2.4 SSE 4 7 2 4 1008.8 1008.4 0.0
06/06:00am 22.9 25.1 19.1 79 2.4 SSE 6 11 3 6 1008.3 1007.9 0.0
06/05:30am 23.3 25.1 18.8 76 2.9 SSE 7 13 4 7 1007.9 1007.5 0.0
06/05:00am 23.6 25.0 18.7 74 3.1 SSE 9 15 5 8 1007.8 1007.4 0.0
06/04:30am 24.0 25.0 18.6 72 3.4 SSE 11 17 6 9 1007.7 1007.3 0.0
06/04:00am 24.6 24.6 19.0 71 3.6 SSE 17 24 9 13 1007.5 1007.1 0.0
06/03:30am 25.0 26.0 19.4 71 3.6 SSE 13 24 7 13 1007.3 1006.9 0.0
06/03:00am 25.1 26.1 19.5 71 3.6 SSE 13 33 7 18 1007.3 1006.9 0.0
06/02:30am 24.9 26.5 19.9 74 3.2 SSE 11 20 6 11 1007.1 1006.7 0.0
06/02:00am 25.3 26.0 20.5 75 3.2 SSE 17 37 9 20 1007.1 1006.7 0.0
06/01:30am 23.9 27.9 22.7 93 0.8 SSE 6 7 3 4 1006.7 1006.4 0.0
06/01:00am 23.0 27.1 22.3 96 0.5 SSE 4 6 2 3 1006.6 1006.3 0.0
06/12:30am 23.0 27.7 22.0 94 0.7 CALM 0 0 0 0 1006.0 1005.7 0.0
06/12:00am 23.1 27.6 21.5 91 1.1 CALM 0 0 0 0 1005.8 1005.5 0.0
 
Date/Time
EST
Tmp

°C
App
Tmp
°C
Dew
Point
°C
Rel
Hum
%
Delta-T

°C
Wind Press
QNH
hPa
Press
MSL
hPa
Rain
since
9 am
mm
Dir
 
Spd
km/h
Gust
km/h
Spd
kts
Gust
kts
05/11:30pm 24.1 29.2 22.7 92 0.9 CALM 0 0 0 0 1005.9 1005.6 0.0
05/11:00pm 24.3 29.2 22.4 89 1.3 CALM 0 0 0 0 1006.0 1005.7 0.0
05/10:30pm 25.2 29.9 22.7 86 1.7 N 2 4 1 2 1005.9 1005.6 0.0
05/10:00pm 25.5 30.4 22.4 83 2.1 CALM 0 0 0 0 1006.2 1005.9 0.0
05/09:30pm 26.8 31.4 23.1 80 2.5 NNE 4 6 2 3 1006.2 1005.9 0.0
05/09:00pm 27.1 31.7 23.1 79 2.7 N 4 4 2 2 1006.0 1005.7 0.0
05/08:30pm 27.9 32.6 23.3 76 3.2 NE 4 6 2 3 1005.7 1005.4 0.0
05/08:00pm 27.9 33.1 22.8 74 3.5 CALM 0 2 0 1 1005.4 1005.1 0.0
05/07:30pm 29.3 33.4 23.0 69 4.3 NNE 6 9 3 5 1004.5 1004.2 0.0
05/07:00pm 30.2 33.8 23.1 65 4.9 NNE 9 15 5 8 1004.0 1003.7 0.0
05/06:30pm 31.9 35.4 21.1 52 7.3 N 4 4 2 2 1003.7 1003.4 0.0
05/06:00pm 32.9 35.1 21.1 50 8.0 N 11 17 6 9 1003.4 1003.1 0.0
05/05:30pm 34.0 35.6 20.7 45 8.9 NNW 13 20 7 11 1003.3 1003.0 0.0
05/05:00pm 34.8 35.7 20.0 42 9.9 NNW 15 20 8 11 1003.4 1003.1 0.0
05/04:30pm 35.1 36.3 19.9 41 10.1 NNW 13 20 7 11 1003.3 1003.0 0.0
05/04:00pm 35.2 36.0 19.9 40 10.2 NNW 15 24 8 13 1003.4 1003.1 0.0
05/03:30pm 34.8 36.2 20.4 43 9.7 NNW 13 20 7 11 1003.7 1003.4 0.0
05/03:00pm 35.0 37.3 21.3 45 9.3 NW 11 19 6 10 1004.1 1003.8 0.0
05/02:30pm 34.7 36.4 21.0 44 9.3 W 13 20 7 11 1004.5 1004.2 0.0
05/02:00pm 34.4 36.7 21.4 46 8.9 NW 11 22 6 12 1005.1 1004.8 0.0
05/01:30pm 33.9 36.2 22.0 49 8.1 WNW 13 19 7 10 1005.7 1005.4 0.0
05/01:00pm 33.1 34.3 20.6 47 8.4 NNW 15 26 8 14 1006.3 1006.0 0.0
05/12:30pm 32.5 34.8 21.4 52 7.5 WNW 11 20 6 11 1007.0 1006.6 0.0
05/12:00pm 31.9 33.5 21.4 53 7.1 NW 15 24 8 13 1007.6 1007.2 0.0
05/11:30am 31.5 34.6 22.2 57 6.3 WNW 9 17 5 9 1008.2 1007.8 0.0
05/11:00am 30.5 33.5 21.9 60 5.8 NNW 9 20 5 11 1008.7 1008.3 0.0
05/10:30am 29.6 32.1 21.8 63 5.3 NW 11 17 6 9 1009.1 1008.7 0.0
05/10:00am 28.9 31.1 21.9 66 4.7 NNW 13 20 7 11 1009.4 1009.1 0.0
05/09:30am 28.3 30.5 21.8 68 4.4 NW 13 20 7 11 1009.8 1009.5 0.0
05/09:00am 27.4 29.6 21.9 72 3.7 NW 13 19 7 10 1009.9 1009.6 0.0
05/08:30am 26.5 28.6 21.7 75 3.2 NNW 13 17 7 9 1010.1 1009.8 0.0
05/08:00am 26.0 28.7 21.4 76 3.1 NW 9 15 5 8 1010.2 1009.9 0.0
05/07:30am 25.1 28.3 21.6 81 2.3 NNW 7 15 4 8 1010.0 1009.7 0.0
05/07:00am 23.8 27.4 21.3 86 1.7 N 4 7 2 4 1010.1 1009.8 0.0
05/06:30am 22.6 25.4 20.5 88 1.4 N 6 7 3 4 1010.0 1009.7 0.0
05/06:00am 22.4 26.0 20.5 89 1.2 N 2 6 1 3 1009.8 1009.5 0.0
05/05:30am 22.2 25.4 20.5 90 1.1 N 4 4 2 2 1009.7 1009.4 0.0
05/05:00am 22.1 26.1 20.6 91 1.0 CALM 0 0 0 0 1009.6 1009.3 0.0
05/04:30am 22.1 26.1 20.6 91 1.0 CALM 0 0 0 0 1009.3 1008.9 0.0
05/04:00am 21.8 25.7 20.3 91 1.0 CALM 0 0 0 0 1009.3 1008.9 0.0
05/03:30am 21.8 25.7 20.3 91 1.0 CALM 0 0 0 0 1009.4 1009.1 0.0
05/03:00am 21.8 25.7 20.4 92 0.9 CALM 0 0 0 0 1009.6 1009.3 0.0
05/02:30am 21.6 25.4 20.2 92 0.9 CALM 0 0 0 0 1009.9 1009.6 0.0
05/02:00am 21.6 25.3 19.9 90 1.1 CALM 0 0 0 0 1010.4 1010.1 0.0
05/01:30am 21.4 25.2 20.2 93 0.8 CALM 0 0 0 0 1010.9 1010.6 0.0
05/01:00am 21.3 24.3 20.1 93 0.8 SW 4 6 2 3 1011.3 1011.0 0.0
05/12:30am 21.4 25.1 19.9 91 1.0 CALM 0 0 0 0 1011.6 1011.3 0.0
05/12:00am 21.1 24.6 19.6 91 1.0 CALM 0 0 0 0 1012.1 1011.8 0.0
 
Date/Time
EST
Tmp

°C
App
Tmp
°C
Dew
Point
°C
Rel
Hum
%
Delta-T

°C
Wind Press
QNH
hPa
Press
MSL
hPa
Rain
since
9 am
mm
Dir
 
Spd
km/h
Gust
km/h
Spd
kts
Gust
kts
04/11:30pm 21.0 24.6 19.7 92 0.8 CALM 0 2 0 1 1012.5 1012.2 0.0
04/11:00pm 21.3 24.2 19.8 91 1.0 N 4 6 2 3 1012.6 1012.3 0.0
04/10:30pm 21.5 24.9 19.4 88 1.3 CALM 0 0 0 0 1012.8 1012.5 0.0
04/10:00pm 22.0 25.5 19.5 86 1.6 CALM 0 0 0 0 1012.9 1012.6 0.0
04/09:30pm 22.4 25.8 19.4 83 1.9 CALM 0 0 0 0 1012.8 1012.5 0.0
04/09:00pm 23.1 26.7 19.7 81 2.2 CALM 0 0 0 0 1013.0 1012.7 0.0
04/08:30pm 24.3 27.4 19.6 75 3.0 NNE 2 4 1 2 1012.9 1012.6 0.0
04/08:00pm 24.6 27.8 19.7 74 3.2 N 2 6 1 3 1012.7 1012.4 0.0
04/07:30pm 25.1 27.8 19.5 71 3.6 NE 4 6 2 3 1012.3 1012.0 0.0
04/07:00pm 25.6 28.4 19.7 70 3.8 ENE 4 9 2 5 1011.8 1011.5 0.0
04/06:30pm 26.2 28.5 19.8 68 4.2 NE 7 13 4 7 1011.5 1011.2 0.0
04/06:00pm 27.2 29.4 20.3 66 4.5 NE 9 19 5 10 1011.3 1011.0 0.0
04/05:30pm 28.2 29.7 20.5 63 5.1 NNE 13 20 7 11 1010.9 1010.6 0.0
04/05:00pm 31.3 33.3 17.9 44 8.6 NNW 4 6 2 3 1010.6 1010.3 0.0
04/04:30pm 31.2 34.0 17.9 45 8.5 CALM 0 2 0 1 1010.6 1010.3 0.0
04/04:00pm 31.1 32.5 17.4 44 8.7 NNW 6 9 3 5 1010.6 1010.3 0.0
04/03:30pm 31.2 32.8 17.9 45 8.5 WNW 6 11 3 6 1010.7 1010.4 0.0
04/03:00pm 31.4 33.6 19.1 48 8.0 SW 6 9 3 5 1010.9 1010.6 0.0
04/02:30pm 30.9 32.5 17.9 45 8.3 WSW 6 9 3 5 1011.3 1011.0 0.0
04/02:00pm 30.6 32.7 18.0 47 8.1 W 4 11 2 6 1011.7 1011.4 0.0
04/01:30pm 30.2 32.5 18.6 49 7.5 SSE 4 9 2 5 1012.2 1011.9 0.0
04/01:00pm 30.8 33.8 20.1 53 7.1 SSW 4 9 2 5 1012.6 1012.3 0.0
04/12:30pm 29.4 31.3 18.5 52 7.0 SSE 6 9 3 5 1013.0 1012.7 0.0
04/12:00pm 28.6 30.2 17.8 52 6.9 SE 6 11 3 6 1013.5 1013.2 0.0
04/11:30am 27.5 29.0 17.7 55 6.2 WSW 6 9 3 5 1013.8 1013.5 0.0
04/11:00am 27.4 28.9 17.6 55 6.2 S 6 9 3 5 1014.3 1014.0 0.0
04/10:30am 27.4 29.6 18.4 58 5.8 SSW 4 7 2 4 1014.7 1014.4 0.0
04/10:00am 26.1 27.7 18.2 61 5.0 SE 7 11 4 6 1015.1 1014.8 0.0
04/09:30am 26.2 28.6 18.9 64 4.7 S 4 9 2 5 1015.0 1014.7 0.0
04/09:00am 25.5 28.5 20.1 72 3.5 SE 4 9 2 5 1015.0 1014.7 0.2
04/08:30am 22.9 25.4 19.1 79 2.4 SE 4 6 2 3 1014.8 1014.5 0.2
04/08:00am 21.3 24.0 18.7 85 1.6 SE 2 4 1 2 1014.8 1014.5 0.2
04/07:30am 19.8 22.7 18.3 91 0.9 CALM 0 6 0 3 1014.5 1014.2 0.2
04/07:00am 18.1 20.8 17.8 98 0.2 CALM 0 0 0 0 1014.3 1014.0 0.2
04/06:30am 16.9 19.1 16.6 98 0.2 CALM 0 0 0 0 1014.0 1013.7 0.2
04/06:00am 16.4 18.4 15.9 97 0.3 CALM 0 0 0 0 1013.6 1013.3 0.2
04/05:30am 16.6 18.6 16.0 96 0.4 CALM 0 0 0 0 1013.5 1013.2 0.2
04/05:00am 17.1 19.3 16.6 97 0.3 CALM 0 0 0 0 1013.4 1013.1 0.2
04/04:30am 16.7 18.6 15.7 94 0.6 CALM 0 0 0 0 1013.5 1013.2 0.2
04/04:00am 17.5 19.4 16.7 95 0.5 NNE 2 4 1 2 1013.3 1013.0 0.2
04/03:30am 17.7 19.4 17.2 97 0.3 N 4 4 2 2 1013.5 1013.2 0.2
04/03:00am 17.5 19.7 16.5 94 0.6 CALM 0 0 0 0 1013.6 1013.3 0.2
04/02:30am 18.3 20.9 17.5 95 0.5 CALM 0 0 0 0 1013.9 1013.6 0.2
04/02:00am 18.3 20.8 17.3 94 0.6 CALM 0 0 0 0 1014.2 1013.9 0.2
04/01:30am 18.7 21.3 17.5 93 0.7 CALM 0 0 0 0 1014.6 1014.3 0.2
04/01:00am 18.9 21.7 17.9 94 0.6 CALM 0 0 0 0 1014.8 1014.5 0.2
04/12:30am 19.1 22.0 18.1 94 0.6 CALM 0 0 0 0 1015.1 1014.8 0.2
04/12:00am 18.9 21.5 17.4 91 0.9 CALM 0 0 0 0 1015.4 1015.1 0.2
 
Date/Time
EST
Tmp

°C
App
Tmp
°C
Dew
Point
°C
Rel
Hum
%
Delta-T

°C
Wind Press
QNH
hPa
Press
MSL
hPa
Rain
since
9 am
mm
Dir
 
Spd
km/h
Gust
km/h
Spd
kts
Gust
kts
03/11:30pm 19.4 22.3 18.1 92 0.8 CALM 0 0 0 0 1015.5 1015.2 0.2
03/11:00pm 19.4 22.2 17.9 91 0.9 CALM 0 0 0 0 1015.5 1015.2 0.2
03/10:30pm 20.0 22.9 18.3 90 1.1 CALM 0 0 0 0 1015.5 1015.2 0.2
03/10:00pm 20.2 23.2 18.5 90 1.1 CALM 0 0 0 0 1015.5 1015.2 0.2
03/09:30pm 20.3 22.9 18.4 89 1.2 WSW 2 4 1 2 1015.5 1015.2 0.2

Latest Capital City Observations: Canberra | Sydney | Melbourne | Brisbane | Adelaide | Perth | Hobart | Darwin

Other Formats:

Comma delimited format used in spreadsheet applications
http://www.bom.gov.au/fwo/IDQ60901/IDQ60901.94566.axf

JavaScript Object Notation format (JSON) in row-major order
http://www.bom.gov.au/fwo/IDQ60901/IDQ60901.94566.json